sensor_id;sensor_type;location;lat;lon;timestamp;P1;durP1;ratioP1;P2;durP2;ratioP2
9950;SDS011;24074;49.254;6.702;2023-11-21T00:01:45;3.97;;;2.60;;
9950;SDS011;24074;49.254;6.702;2023-11-21T00:04:10;3.77;;;2.37;;
9950;SDS011;24074;49.254;6.702;2023-11-21T00:06:36;2.93;;;1.90;;
9950;SDS011;24074;49.254;6.702;2023-11-21T00:09:02;4.27;;;2.80;;
9950;SDS011;24074;49.254;6.702;2023-11-21T00:11:27;4.10;;;2.73;;
9950;SDS011;24074;49.254;6.702;2023-11-21T00:13:54;3.90;;;2.90;;
9950;SDS011;24074;49.254;6.702;2023-11-21T00:16:19;4.27;;;2.80;;
9950;SDS011;24074;49.254;6.702;2023-11-21T00:18:47;6.23;;;2.77;;
9950;SDS011;24074;49.254;6.702;2023-11-21T00:21:12;4.57;;;2.70;;
9950;SDS011;24074;49.254;6.702;2023-11-21T00:23:38;3.97;;;2.87;;
9950;SDS011;24074;49.254;6.702;2023-11-21T00:26:03;4.97;;;3.20;;
9950;SDS011;24074;49.254;6.702;2023-11-21T00:28:29;5.93;;;3.63;;
9950;SDS011;24074;49.254;6.702;2023-11-21T00:30:55;6.20;;;3.17;;
9950;SDS011;24074;49.254;6.702;2023-11-21T00:33:20;5.30;;;3.33;;
9950;SDS011;24074;49.254;6.702;2023-11-21T00:35:46;5.20;;;3.43;;
9950;SDS011;24074;49.254;6.702;2023-11-21T00:38:14;4.97;;;3.87;;
9950;SDS011;24074;49.254;6.702;2023-11-21T00:40:40;5.53;;;3.73;;
9950;SDS011;24074;49.254;6.702;2023-11-21T00:43:06;6.13;;;3.70;;
9950;SDS011;24074;49.254;6.702;2023-11-21T00:45:31;6.57;;;3.90;;
9950;SDS011;24074;49.254;6.702;2023-11-21T00:47:57;5.67;;;3.83;;
9950;SDS011;24074;49.254;6.702;2023-11-21T00:50:23;6.10;;;3.40;;
9950;SDS011;24074;49.254;6.702;2023-11-21T00:52:49;7.63;;;3.60;;
9950;SDS011;24074;49.254;6.702;2023-11-21T00:55:16;5.90;;;3.90;;
9950;SDS011;24074;49.254;6.702;2023-11-21T00:57:43;5.30;;;3.90;;
9950;SDS011;24074;49.254;6.702;2023-11-21T01:00:08;4.27;;;3.53;;
9950;SDS011;24074;49.254;6.702;2023-11-21T01:02:38;4.53;;;3.60;;
9950;SDS011;24074;49.254;6.702;2023-11-21T01:05:04;5.70;;;4.30;;
9950;SDS011;24074;49.254;6.702;2023-11-21T01:07:32;4.83;;;3.97;;
9950;SDS011;24074;49.254;6.702;2023-11-21T01:09:58;4.47;;;3.90;;
9950;SDS011;24074;49.254;6.702;2023-11-21T01:12:24;4.83;;;3.90;;
9950;SDS011;24074;49.254;6.702;2023-11-21T01:14:50;7.27;;;4.27;;
9950;SDS011;24074;49.254;6.702;2023-11-21T01:17:15;6.90;;;4.43;;
9950;SDS011;24074;49.254;6.702;2023-11-21T01:19:41;5.87;;;4.37;;
9950;SDS011;24074;49.254;6.702;2023-11-21T01:22:07;5.80;;;4.17;;
9950;SDS011;24074;49.254;6.702;2023-11-21T01:24:33;5.40;;;4.17;;
9950;SDS011;24074;49.254;6.702;2023-11-21T01:26:59;5.93;;;4.13;;
9950;SDS011;24074;49.254;6.702;2023-11-21T01:29:24;5.47;;;4.40;;
9950;SDS011;24074;49.254;6.702;2023-11-21T01:31:50;6.13;;;4.27;;
9950;SDS011;24074;49.254;6.702;2023-11-21T01:34:16;6.60;;;4.73;;
9950;SDS011;24074;49.254;6.702;2023-11-21T01:36:42;6.77;;;4.70;;
9950;SDS011;24074;49.254;6.702;2023-11-21T01:39:07;6.93;;;4.47;;
9950;SDS011;24074;49.254;6.702;2023-11-21T01:41:33;5.97;;;4.13;;
9950;SDS011;24074;49.254;6.702;2023-11-21T01:44:00;6.43;;;4.53;;
9950;SDS011;24074;49.254;6.702;2023-11-21T01:46:31;6.30;;;4.10;;
9950;SDS011;24074;49.254;6.702;2023-11-21T01:48:57;5.03;;;4.23;;
9950;SDS011;24074;49.254;6.702;2023-11-21T01:51:23;6.60;;;4.73;;
9950;SDS011;24074;49.254;6.702;2023-11-21T01:53:48;5.87;;;4.40;;
9950;SDS011;24074;49.254;6.702;2023-11-21T01:56:14;5.50;;;4.13;;
9950;SDS011;24074;49.254;6.702;2023-11-21T01:58:40;6.23;;;4.53;;
9950;SDS011;24074;49.254;6.702;2023-11-21T02:01:08;4.87;;;4.30;;
9950;SDS011;24074;49.254;6.702;2023-11-21T02:03:34;5.13;;;4.60;;
9950;SDS011;24074;49.254;6.702;2023-11-21T02:06:00;4.83;;;4.33;;
9950;SDS011;24074;49.254;6.702;2023-11-21T02:08:26;6.30;;;4.20;;
9950;SDS011;24074;49.254;6.702;2023-11-21T02:10:52;5.83;;;4.67;;
9950;SDS011;24074;49.254;6.702;2023-11-21T02:13:17;6.53;;;4.50;;
9950;SDS011;24074;49.254;6.702;2023-11-21T02:15:43;6.87;;;4.73;;
9950;SDS011;24074;49.254;6.702;2023-11-21T02:18:09;5.17;;;4.13;;
9950;SDS011;24074;49.254;6.702;2023-11-21T02:20:36;4.10;;;3.70;;
9950;SDS011;24074;49.254;6.702;2023-11-21T02:23:03;5.33;;;4.23;;
9950;SDS011;24074;49.254;6.702;2023-11-21T02:25:30;4.37;;;3.80;;
9950;SDS011;24074;49.254;6.702;2023-11-21T02:27:57;4.83;;;3.63;;
9950;SDS011;24074;49.254;6.702;2023-11-21T02:30:25;4.80;;;4.30;;
9950;SDS011;24074;49.254;6.702;2023-11-21T02:32:54;4.83;;;3.83;;
9950;SDS011;24074;49.254;6.702;2023-11-21T02:35:22;5.10;;;4.40;;
9950;SDS011;24074;49.254;6.702;2023-11-21T02:37:48;4.77;;;4.20;;
9950;SDS011;24074;49.254;6.702;2023-11-21T02:40:14;4.53;;;4.13;;
9950;SDS011;24074;49.254;6.702;2023-11-21T02:42:45;5.77;;;4.00;;
9950;SDS011;24074;49.254;6.702;2023-11-21T02:45:12;4.83;;;4.33;;
9950;SDS011;24074;49.254;6.702;2023-11-21T02:47:41;4.70;;;4.17;;
9950;SDS011;24074;49.254;6.702;2023-11-21T02:50:07;5.30;;;4.67;;
9950;SDS011;24074;49.254;6.702;2023-11-21T02:52:34;5.33;;;4.77;;
9950;SDS011;24074;49.254;6.702;2023-11-21T02:55:00;5.87;;;4.80;;
9950;SDS011;24074;49.254;6.702;2023-11-21T02:57:29;7.90;;;4.97;;
9950;SDS011;24074;49.254;6.702;2023-11-21T02:59:55;4.73;;;4.07;;
9950;SDS011;24074;49.254;6.702;2023-11-21T03:02:20;4.80;;;4.20;;
9950;SDS011;24074;49.254;6.702;2023-11-21T03:04:47;4.90;;;4.40;;
9950;SDS011;24074;49.254;6.702;2023-11-21T03:07:14;4.50;;;4.07;;
9950;SDS011;24074;49.254;6.702;2023-11-21T03:09:40;7.23;;;4.30;;
9950;SDS011;24074;49.254;6.702;2023-11-21T03:12:05;4.27;;;3.53;;
9950;SDS011;24074;49.254;6.702;2023-11-21T03:14:34;4.30;;;3.87;;
9950;SDS011;24074;49.254;6.702;2023-11-21T03:17:00;4.03;;;3.63;;
9950;SDS011;24074;49.254;6.702;2023-11-21T03:19:26;4.13;;;3.63;;
9950;SDS011;24074;49.254;6.702;2023-11-21T03:21:51;5.03;;;3.70;;
9950;SDS011;24074;49.254;6.702;2023-11-21T03:24:18;4.47;;;3.83;;
9950;SDS011;24074;49.254;6.702;2023-11-21T03:26:45;4.13;;;3.57;;
9950;SDS011;24074;49.254;6.702;2023-11-21T03:29:11;4.20;;;3.80;;
9950;SDS011;24074;49.254;6.702;2023-11-21T03:31:37;5.20;;;4.10;;
9950;SDS011;24074;49.254;6.702;2023-11-21T03:34:03;5.00;;;3.83;;
9950;SDS011;24074;49.254;6.702;2023-11-21T03:36:28;5.23;;;3.70;;
9950;SDS011;24074;49.254;6.702;2023-11-21T03:38:54;4.50;;;3.97;;
9950;SDS011;24074;49.254;6.702;2023-11-21T03:41:23;4.60;;;3.70;;
9950;SDS011;24074;49.254;6.702;2023-11-21T03:43:55;4.73;;;3.60;;
9950;SDS011;24074;49.254;6.702;2023-11-21T03:46:20;4.07;;;3.67;;
9950;SDS011;24074;49.254;6.702;2023-11-21T03:48:46;3.83;;;3.50;;
9950;SDS011;24074;49.254;6.702;2023-11-21T03:51:11;4.60;;;3.70;;
9950;SDS011;24074;49.254;6.702;2023-11-21T03:53:37;4.20;;;3.50;;
9950;SDS011;24074;49.254;6.702;2023-11-21T03:56:03;4.73;;;3.90;;
9950;SDS011;24074;49.254;6.702;2023-11-21T03:58:29;5.27;;;3.60;;
9950;SDS011;24074;49.254;6.702;2023-11-21T04:00:54;5.40;;;3.67;;
9950;SDS011;24074;49.254;6.702;2023-11-21T04:03:20;3.57;;;3.27;;
9950;SDS011;24074;49.254;6.702;2023-11-21T04:05:48;4.73;;;3.73;;
9950;SDS011;24074;49.254;6.702;2023-11-21T04:08:14;4.27;;;3.50;;
9950;SDS011;24074;49.254;6.702;2023-11-21T04:10:39;4.13;;;3.73;;
9950;SDS011;24074;49.254;6.702;2023-11-21T04:13:05;3.93;;;3.27;;
9950;SDS011;24074;49.254;6.702;2023-11-21T04:15:33;4.80;;;3.40;;
9950;SDS011;24074;49.254;6.702;2023-11-21T04:17:59;4.40;;;3.50;;
9950;SDS011;24074;49.254;6.702;2023-11-21T04:20:24;3.87;;;3.37;;
9950;SDS011;24074;49.254;6.702;2023-11-21T04:22:50;3.53;;;3.20;;
9950;SDS011;24074;49.254;6.702;2023-11-21T04:25:16;4.13;;;3.20;;
9950;SDS011;24074;49.254;6.702;2023-11-21T04:27:42;3.67;;;3.13;;
9950;SDS011;24074;49.254;6.702;2023-11-21T04:30:09;3.70;;;3.30;;
9950;SDS011;24074;49.254;6.702;2023-11-21T04:32:35;3.17;;;2.87;;
9950;SDS011;24074;49.254;6.702;2023-11-21T04:35:01;5.00;;;2.80;;
9950;SDS011;24074;49.254;6.702;2023-11-21T04:37:28;2.90;;;2.60;;
9950;SDS011;24074;49.254;6.702;2023-11-21T04:39:54;3.10;;;2.80;;
9950;SDS011;24074;49.254;6.702;2023-11-21T04:42:20;3.40;;;3.10;;
9950;SDS011;24074;49.254;6.702;2023-11-21T04:44:45;3.10;;;2.80;;
9950;SDS011;24074;49.254;6.702;2023-11-21T04:47:11;3.90;;;2.77;;
9950;SDS011;24074;49.254;6.702;2023-11-21T04:49:37;2.77;;;2.50;;
9950;SDS011;24074;49.254;6.702;2023-11-21T04:52:05;3.00;;;2.47;;
9950;SDS011;24074;49.254;6.702;2023-11-21T04:54:30;2.87;;;2.50;;
9950;SDS011;24074;49.254;6.702;2023-11-21T04:56:56;3.10;;;2.80;;
9950;SDS011;24074;49.254;6.702;2023-11-21T04:59:22;2.83;;;2.53;;
9950;SDS011;24074;49.254;6.702;2023-11-21T05:01:52;3.47;;;2.47;;
9950;SDS011;24074;49.254;6.702;2023-11-21T05:04:18;3.17;;;2.23;;
9950;SDS011;24074;49.254;6.702;2023-11-21T05:06:44;2.90;;;2.40;;
9950;SDS011;24074;49.254;6.702;2023-11-21T05:09:11;3.00;;;2.70;;
9950;SDS011;24074;49.254;6.702;2023-11-21T05:11:37;2.67;;;2.47;;
9950;SDS011;24074;49.254;6.702;2023-11-21T05:14:03;3.00;;;2.40;;
9950;SDS011;24074;49.254;6.702;2023-11-21T05:16:30;3.10;;;2.77;;
9950;SDS011;24074;49.254;6.702;2023-11-21T05:18:56;2.57;;;2.37;;
9950;SDS011;24074;49.254;6.702;2023-11-21T05:21:26;2.53;;;2.10;;
9950;SDS011;24074;49.254;6.702;2023-11-21T05:23:52;2.70;;;2.47;;
9950;SDS011;24074;49.254;6.702;2023-11-21T05:26:20;2.53;;;2.33;;
9950;SDS011;24074;49.254;6.702;2023-11-21T05:28:46;2.80;;;2.00;;
9950;SDS011;24074;49.254;6.702;2023-11-21T05:31:12;2.33;;;2.10;;
9950;SDS011;24074;49.254;6.702;2023-11-21T05:33:38;3.27;;;2.17;;
9950;SDS011;24074;49.254;6.702;2023-11-21T05:36:03;2.30;;;2.03;;
9950;SDS011;24074;49.254;6.702;2023-11-21T05:38:29;2.50;;;2.07;;
9950;SDS011;24074;49.254;6.702;2023-11-21T05:40:55;2.53;;;2.17;;
9950;SDS011;24074;49.254;6.702;2023-11-21T05:43:20;2.53;;;2.33;;
9950;SDS011;24074;49.254;6.702;2023-11-21T05:45:46;4.77;;;2.90;;
9950;SDS011;24074;49.254;6.702;2023-11-21T05:48:11;3.70;;;3.10;;
9950;SDS011;24074;49.254;6.702;2023-11-21T05:50:37;4.20;;;3.00;;
9950;SDS011;24074;49.254;6.702;2023-11-21T05:53:03;4.87;;;3.20;;
9950;SDS011;24074;49.254;6.702;2023-11-21T05:55:29;5.13;;;3.37;;
9950;SDS011;24074;49.254;6.702;2023-11-21T05:57:54;3.77;;;3.00;;
9950;SDS011;24074;49.254;6.702;2023-11-21T06:00:20;4.67;;;4.00;;
9950;SDS011;24074;49.254;6.702;2023-11-21T06:02:51;3.50;;;3.13;;
9950;SDS011;24074;49.254;6.702;2023-11-21T06:05:18;5.13;;;3.77;;
9950;SDS011;24074;49.254;6.702;2023-11-21T06:07:45;5.73;;;4.53;;
9950;SDS011;24074;49.254;6.702;2023-11-21T06:10:11;6.13;;;4.60;;
9950;SDS011;24074;49.254;6.702;2023-11-21T06:12:42;4.97;;;4.17;;
9950;SDS011;24074;49.254;6.702;2023-11-21T06:15:08;5.80;;;4.47;;
9950;SDS011;24074;49.254;6.702;2023-11-21T06:17:38;6.10;;;4.53;;
9950;SDS011;24074;49.254;6.702;2023-11-21T06:20:07;5.90;;;4.43;;
9950;SDS011;24074;49.254;6.702;2023-11-21T06:22:37;7.03;;;4.57;;
9950;SDS011;24074;49.254;6.702;2023-11-21T06:25:04;5.70;;;4.40;;
9950;SDS011;24074;49.254;6.702;2023-11-21T06:27:31;4.33;;;3.93;;
9950;SDS011;24074;49.254;6.702;2023-11-21T06:29:58;4.90;;;4.40;;
9950;SDS011;24074;49.254;6.702;2023-11-21T06:32:26;6.10;;;4.70;;
9950;SDS011;24074;49.254;6.702;2023-11-21T06:34:54;5.43;;;4.50;;
9950;SDS011;24074;49.254;6.702;2023-11-21T06:37:28;5.40;;;4.33;;
9950;SDS011;24074;49.254;6.702;2023-11-21T06:39:55;5.00;;;4.37;;
9950;SDS011;24074;49.254;6.702;2023-11-21T06:42:23;5.10;;;3.73;;
9950;SDS011;24074;49.254;6.702;2023-11-21T06:44:49;4.83;;;4.07;;
9950;SDS011;24074;49.254;6.702;2023-11-21T06:47:24;4.83;;;3.97;;
9950;SDS011;24074;49.254;6.702;2023-11-21T06:49:51;6.90;;;3.97;;
9950;SDS011;24074;49.254;6.702;2023-11-21T06:52:19;6.27;;;4.60;;
9950;SDS011;24074;49.254;6.702;2023-11-21T06:54:45;5.10;;;4.07;;
9950;SDS011;24074;49.254;6.702;2023-11-21T06:57:12;4.87;;;3.67;;
9950;SDS011;24074;49.254;6.702;2023-11-21T06:59:38;4.80;;;4.00;;
9950;SDS011;24074;49.254;6.702;2023-11-21T07:02:04;4.40;;;3.60;;
9950;SDS011;24074;49.254;6.702;2023-11-21T07:04:32;5.23;;;3.90;;
9950;SDS011;24074;49.254;6.702;2023-11-21T07:07:02;4.73;;;4.13;;
9950;SDS011;24074;49.254;6.702;2023-11-21T07:09:28;5.43;;;3.93;;
9950;SDS011;24074;49.254;6.702;2023-11-21T07:11:54;4.27;;;3.47;;
9950;SDS011;24074;49.254;6.702;2023-11-21T07:14:20;4.33;;;3.60;;
9950;SDS011;24074;49.254;6.702;2023-11-21T07:16:46;5.73;;;4.00;;
9950;SDS011;24074;49.254;6.702;2023-11-21T07:19:12;4.70;;;3.80;;
9950;SDS011;24074;49.254;6.702;2023-11-21T07:21:38;4.97;;;4.00;;
9950;SDS011;24074;49.254;6.702;2023-11-21T07:24:05;5.17;;;3.77;;
9950;SDS011;24074;49.254;6.702;2023-11-21T07:26:31;4.50;;;3.77;;
9950;SDS011;24074;49.254;6.702;2023-11-21T07:28:58;4.10;;;3.60;;
9950;SDS011;24074;49.254;6.702;2023-11-21T07:31:24;4.97;;;4.00;;
9950;SDS011;24074;49.254;6.702;2023-11-21T07:33:50;5.10;;;3.90;;
9950;SDS011;24074;49.254;6.702;2023-11-21T07:36:16;5.67;;;4.20;;
9950;SDS011;24074;49.254;6.702;2023-11-21T07:38:47;5.50;;;4.20;;
9950;SDS011;24074;49.254;6.702;2023-11-21T07:41:13;5.20;;;4.00;;
9950;SDS011;24074;49.254;6.702;2023-11-21T07:43:42;8.20;;;4.63;;
9950;SDS011;24074;49.254;6.702;2023-11-21T07:46:09;6.90;;;4.03;;
9950;SDS011;24074;49.254;6.702;2023-11-21T07:48:35;6.20;;;4.10;;
9950;SDS011;24074;49.254;6.702;2023-11-21T07:51:01;5.47;;;3.30;;
9950;SDS011;24074;49.254;6.702;2023-11-21T07:53:30;4.33;;;3.40;;
9950;SDS011;24074;49.254;6.702;2023-11-21T07:55:56;3.63;;;3.00;;
9950;SDS011;24074;49.254;6.702;2023-11-21T07:58:22;3.27;;;2.97;;
9950;SDS011;24074;49.254;6.702;2023-11-21T08:00:48;4.30;;;3.27;;
9950;SDS011;24074;49.254;6.702;2023-11-21T08:03:15;3.50;;;2.90;;
9950;SDS011;24074;49.254;6.702;2023-11-21T08:05:41;6.13;;;3.20;;
9950;SDS011;24074;49.254;6.702;2023-11-21T08:08:06;3.00;;;2.60;;
9950;SDS011;24074;49.254;6.702;2023-11-21T08:10:32;4.20;;;2.70;;
9950;SDS011;24074;49.254;6.702;2023-11-21T08:12:58;3.53;;;2.97;;
9950;SDS011;24074;49.254;6.702;2023-11-21T08:15:23;3.87;;;2.80;;
9950;SDS011;24074;49.254;6.702;2023-11-21T08:17:49;5.00;;;3.00;;
9950;SDS011;24074;49.254;6.702;2023-11-21T08:20:18;5.60;;;3.07;;
9950;SDS011;24074;49.254;6.702;2023-11-21T08:22:43;2.77;;;2.50;;
9950;SDS011;24074;49.254;6.702;2023-11-21T08:25:12;3.13;;;2.63;;
9950;SDS011;24074;49.254;6.702;2023-11-21T08:27:38;2.87;;;2.43;;
9950;SDS011;24074;49.254;6.702;2023-11-21T08:30:04;2.97;;;2.53;;
9950;SDS011;24074;49.254;6.702;2023-11-21T08:32:30;4.07;;;2.60;;
9950;SDS011;24074;49.254;6.702;2023-11-21T08:34:58;3.43;;;2.60;;
9950;SDS011;24074;49.254;6.702;2023-11-21T08:37:26;2.50;;;2.30;;
9950;SDS011;24074;49.254;6.702;2023-11-21T08:39:57;4.43;;;3.00;;
9950;SDS011;24074;49.254;6.702;2023-11-21T08:42:24;3.90;;;2.80;;
9950;SDS011;24074;49.254;6.702;2023-11-21T08:44:50;4.63;;;3.00;;
9950;SDS011;24074;49.254;6.702;2023-11-21T08:47:16;3.87;;;2.40;;
9950;SDS011;24074;49.254;6.702;2023-11-21T08:49:41;4.70;;;3.10;;
9950;SDS011;24074;49.254;6.702;2023-11-21T08:52:07;3.20;;;2.77;;
9950;SDS011;24074;49.254;6.702;2023-11-21T08:54:33;3.13;;;2.67;;
9950;SDS011;24074;49.254;6.702;2023-11-21T08:56:59;4.17;;;3.03;;
9950;SDS011;24074;49.254;6.702;2023-11-21T08:59:25;5.87;;;3.50;;
9950;SDS011;24074;49.254;6.702;2023-11-21T09:01:52;4.00;;;3.00;;
9950;SDS011;24074;49.254;6.702;2023-11-21T09:04:17;4.90;;;2.73;;
9950;SDS011;24074;49.254;6.702;2023-11-21T09:06:43;4.07;;;3.37;;
9950;SDS011;24074;49.254;6.702;2023-11-21T09:09:08;5.53;;;3.60;;
9950;SDS011;24074;49.254;6.702;2023-11-21T09:11:35;5.40;;;3.17;;
9950;SDS011;24074;49.254;6.702;2023-11-21T09:14:01;3.73;;;3.23;;
9950;SDS011;24074;49.254;6.702;2023-11-21T09:16:28;4.90;;;3.30;;
9950;SDS011;24074;49.254;6.702;2023-11-21T09:18:54;3.97;;;3.27;;
9950;SDS011;24074;49.254;6.702;2023-11-21T09:21:19;5.80;;;3.73;;
9950;SDS011;24074;49.254;6.702;2023-11-21T09:23:45;6.57;;;4.30;;
9950;SDS011;24074;49.254;6.702;2023-11-21T09:26:11;5.80;;;4.43;;
9950;SDS011;24074;49.254;6.702;2023-11-21T09:28:36;6.27;;;4.10;;
9950;SDS011;24074;49.254;6.702;2023-11-21T09:31:04;6.70;;;4.10;;
9950;SDS011;24074;49.254;6.702;2023-11-21T09:33:33;4.80;;;3.77;;
9950;SDS011;24074;49.254;6.702;2023-11-21T09:35:59;3.83;;;3.27;;
9950;SDS011;24074;49.254;6.702;2023-11-21T09:38:26;3.77;;;3.30;;
9950;SDS011;24074;49.254;6.702;2023-11-21T09:40:54;5.07;;;3.50;;
9950;SDS011;24074;49.254;6.702;2023-11-21T09:43:20;4.00;;;3.30;;
9950;SDS011;24074;49.254;6.702;2023-11-21T09:45:56;3.80;;;3.23;;
9950;SDS011;24074;49.254;6.702;2023-11-21T09:48:27;3.20;;;2.90;;
9950;SDS011;24074;49.254;6.702;2023-11-21T09:50:55;3.10;;;2.77;;
9950;SDS011;24074;49.254;6.702;2023-11-21T09:53:21;3.27;;;2.50;;
9950;SDS011;24074;49.254;6.702;2023-11-21T09:55:52;3.00;;;2.37;;
9950;SDS011;24074;49.254;6.702;2023-11-21T09:58:18;2.87;;;2.60;;
9950;SDS011;24074;49.254;6.702;2023-11-21T10:00:47;2.77;;;2.50;;
9950;SDS011;24074;49.254;6.702;2023-11-21T10:03:14;2.97;;;2.63;;
9950;SDS011;24074;49.254;6.702;2023-11-21T10:05:44;3.47;;;2.80;;
9950;SDS011;24074;49.254;6.702;2023-11-21T10:08:11;2.97;;;2.50;;
9950;SDS011;24074;49.254;6.702;2023-11-21T10:10:38;4.13;;;2.77;;
9950;SDS011;24074;49.254;6.702;2023-11-21T10:13:09;3.00;;;2.30;;
9950;SDS011;24074;49.254;6.702;2023-11-21T10:15:37;3.10;;;2.80;;
9950;SDS011;24074;49.254;6.702;2023-11-21T10:18:03;3.77;;;2.47;;
9950;SDS011;24074;49.254;6.702;2023-11-21T10:20:31;2.67;;;2.47;;
9950;SDS011;24074;49.254;6.702;2023-11-21T10:23:03;4.30;;;2.87;;
9950;SDS011;24074;49.254;6.702;2023-11-21T10:25:29;4.53;;;2.50;;
9950;SDS011;24074;49.254;6.702;2023-11-21T10:27:58;2.90;;;2.60;;
9950;SDS011;24074;49.254;6.702;2023-11-21T10:30:36;3.13;;;2.43;;
9950;SDS011;24074;49.254;6.702;2023-11-21T10:33:05;4.17;;;2.63;;
9950;SDS011;24074;49.254;6.702;2023-11-21T10:35:39;4.03;;;2.90;;
9950;SDS011;24074;49.254;6.702;2023-11-21T10:38:11;3.10;;;2.43;;
9950;SDS011;24074;49.254;6.702;2023-11-21T10:40:40;4.03;;;2.77;;
9950;SDS011;24074;49.254;6.702;2023-11-21T10:43:07;3.60;;;2.53;;
9950;SDS011;24074;49.254;6.702;2023-11-21T10:45:34;3.03;;;2.50;;
9950;SDS011;24074;49.254;6.702;2023-11-21T10:48:04;4.27;;;2.50;;
9950;SDS011;24074;49.254;6.702;2023-11-21T10:50:32;2.70;;;2.50;;
9950;SDS011;24074;49.254;6.702;2023-11-21T10:53:00;3.53;;;2.70;;
9950;SDS011;24074;49.254;6.702;2023-11-21T10:55:27;4.00;;;2.57;;
9950;SDS011;24074;49.254;6.702;2023-11-21T10:57:53;2.73;;;2.47;;
9950;SDS011;24074;49.254;6.702;2023-11-21T11:00:21;2.90;;;2.60;;
9950;SDS011;24074;49.254;6.702;2023-11-21T11:02:50;3.33;;;2.97;;
9950;SDS011;24074;49.254;6.702;2023-11-21T11:05:19;2.70;;;2.50;;
9950;SDS011;24074;49.254;6.702;2023-11-21T11:07:56;3.00;;;2.63;;
9950;SDS011;24074;49.254;6.702;2023-11-21T11:10:30;4.27;;;2.63;;
9950;SDS011;24074;49.254;6.702;2023-11-21T11:12:56;3.13;;;2.83;;
9950;SDS011;24074;49.254;6.702;2023-11-21T11:15:23;3.10;;;2.50;;
9950;SDS011;24074;49.254;6.702;2023-11-21T11:17:50;3.67;;;3.27;;
9950;SDS011;24074;49.254;6.702;2023-11-21T11:20:16;3.63;;;3.23;;
9950;SDS011;24074;49.254;6.702;2023-11-21T11:22:57;4.00;;;3.43;;
9950;SDS011;24074;49.254;6.702;2023-11-21T11:28:14;5.00;;;3.30;;
9950;SDS011;24074;49.254;6.702;2023-11-21T11:30:50;6.57;;;3.10;;
9950;SDS011;24074;49.254;6.702;2023-11-21T11:33:31;5.80;;;3.47;;
9950;SDS011;24074;49.254;6.702;2023-11-21T11:36:31;3.80;;;3.10;;
9950;SDS011;24074;49.254;6.702;2023-11-21T11:39:02;3.17;;;2.70;;
9950;SDS011;24074;49.254;6.702;2023-11-21T11:41:30;4.77;;;2.80;;
9950;SDS011;24074;49.254;6.702;2023-11-21T11:44:02;4.53;;;3.00;;
9950;SDS011;24074;49.254;6.702;2023-11-21T11:46:44;5.50;;;2.70;;
9950;SDS011;24074;49.254;6.702;2023-11-21T11:49:23;3.60;;;2.73;;
9950;SDS011;24074;49.254;6.702;2023-11-21T11:55:13;4.17;;;2.77;;
9950;SDS011;24074;49.254;6.702;2023-11-21T11:57:41;5.17;;;3.60;;
9950;SDS011;24074;49.254;6.702;2023-11-21T12:02:40;4.37;;;2.80;;
9950;SDS011;24074;49.254;6.702;2023-11-21T12:05:10;4.00;;;2.90;;
9950;SDS011;24074;49.254;6.702;2023-11-21T12:07:42;4.13;;;2.80;;
9950;SDS011;24074;49.254;6.702;2023-11-21T12:10:16;4.40;;;2.73;;
9950;SDS011;24074;49.254;6.702;2023-11-21T12:12:50;4.03;;;3.30;;
9950;SDS011;24074;49.254;6.702;2023-11-21T12:15:19;3.67;;;2.93;;
9950;SDS011;24074;49.254;6.702;2023-11-21T12:17:46;5.80;;;3.27;;
9950;SDS011;24074;49.254;6.702;2023-11-21T12:20:14;5.53;;;3.20;;
9950;SDS011;24074;49.254;6.702;2023-11-21T12:22:43;3.33;;;2.97;;
9950;SDS011;24074;49.254;6.702;2023-11-21T12:25:12;3.20;;;2.90;;
9950;SDS011;24074;49.254;6.702;2023-11-21T12:27:41;4.80;;;3.10;;
9950;SDS011;24074;49.254;6.702;2023-11-21T12:30:07;4.83;;;3.50;;
9950;SDS011;24074;49.254;6.702;2023-11-21T12:32:38;6.17;;;3.47;;
9950;SDS011;24074;49.254;6.702;2023-11-21T12:35:10;5.10;;;3.20;;
9950;SDS011;24074;49.254;6.702;2023-11-21T12:37:37;3.77;;;3.03;;
9950;SDS011;24074;49.254;6.702;2023-11-21T12:40:04;4.23;;;3.23;;
9950;SDS011;24074;49.254;6.702;2023-11-21T12:42:32;5.50;;;3.80;;
9950;SDS011;24074;49.254;6.702;2023-11-21T12:47:45;4.50;;;2.93;;
9950;SDS011;24074;49.254;6.702;2023-11-21T12:50:13;4.00;;;3.20;;
9950;SDS011;24074;49.254;6.702;2023-11-21T12:52:42;4.10;;;3.20;;
9950;SDS011;24074;49.254;6.702;2023-11-21T12:55:22;5.27;;;3.10;;
9950;SDS011;24074;49.254;6.702;2023-11-21T12:57:52;4.47;;;3.47;;
9950;SDS011;24074;49.254;6.702;2023-11-21T13:00:20;4.30;;;3.27;;
9950;SDS011;24074;49.254;6.702;2023-11-21T13:02:53;4.30;;;3.40;;
9950;SDS011;24074;49.254;6.702;2023-11-21T13:05:34;3.97;;;3.20;;
9950;SDS011;24074;49.254;6.702;2023-11-21T13:08:05;4.73;;;3.93;;
9950;SDS011;24074;49.254;6.702;2023-11-21T13:10:38;5.40;;;3.37;;
9950;SDS011;24074;49.254;6.702;2023-11-21T13:13:07;3.80;;;3.33;;
9950;SDS011;24074;49.254;6.702;2023-11-21T13:15:34;4.20;;;3.80;;
9950;SDS011;24074;49.254;6.702;2023-11-21T13:18:05;3.50;;;3.20;;
9950;SDS011;24074;49.254;6.702;2023-11-21T13:20:31;4.33;;;3.63;;
9950;SDS011;24074;49.254;6.702;2023-11-21T13:22:58;4.60;;;3.77;;
9950;SDS011;24074;49.254;6.702;2023-11-21T13:25:27;4.83;;;3.70;;
9950;SDS011;24074;49.254;6.702;2023-11-21T13:28:02;4.90;;;3.30;;
9950;SDS011;24074;49.254;6.702;2023-11-21T13:30:28;4.50;;;4.00;;
9950;SDS011;24074;49.254;6.702;2023-11-21T13:33:03;4.33;;;3.40;;
9950;SDS011;24074;49.254;6.702;2023-11-21T13:35:33;5.23;;;3.60;;
9950;SDS011;24074;49.254;6.702;2023-11-21T13:38:07;4.10;;;3.50;;
9950;SDS011;24074;49.254;6.702;2023-11-21T13:40:34;4.20;;;3.57;;
9950;SDS011;24074;49.254;6.702;2023-11-21T13:43:15;3.80;;;3.27;;
9950;SDS011;24074;49.254;6.702;2023-11-21T13:45:43;5.90;;;3.60;;
9950;SDS011;24074;49.254;6.702;2023-11-21T13:48:10;4.43;;;3.53;;
9950;SDS011;24074;49.254;6.702;2023-11-21T13:50:41;3.73;;;3.40;;
9950;SDS011;24074;49.254;6.702;2023-11-21T13:53:23;4.60;;;3.70;;
9950;SDS011;24074;49.254;6.702;2023-11-21T13:55:52;3.63;;;3.33;;
9950;SDS011;24074;49.254;6.702;2023-11-21T13:58:19;5.07;;;3.97;;
9950;SDS011;24074;49.254;6.702;2023-11-21T14:00:49;3.87;;;3.40;;
9950;SDS011;24074;49.254;6.702;2023-11-21T14:03:22;4.80;;;3.67;;
9950;SDS011;24074;49.254;6.702;2023-11-21T14:05:57;4.83;;;3.70;;
9950;SDS011;24074;49.254;6.702;2023-11-21T14:08:25;5.03;;;4.20;;
9950;SDS011;24074;49.254;6.702;2023-11-21T14:10:54;6.70;;;3.57;;
9950;SDS011;24074;49.254;6.702;2023-11-21T14:13:24;4.63;;;3.53;;
9950;SDS011;24074;49.254;6.702;2023-11-21T14:15:50;5.13;;;4.20;;
9950;SDS011;24074;49.254;6.702;2023-11-21T14:18:22;5.40;;;3.67;;
9950;SDS011;24074;49.254;6.702;2023-11-21T14:20:56;5.57;;;4.00;;
9950;SDS011;24074;49.254;6.702;2023-11-21T14:23:22;4.13;;;3.83;;
9950;SDS011;24074;49.254;6.702;2023-11-21T14:25:48;3.73;;;3.33;;
9950;SDS011;24074;49.254;6.702;2023-11-21T14:28:17;5.20;;;3.60;;
9950;SDS011;24074;49.254;6.702;2023-11-21T14:30:44;4.97;;;3.93;;
9950;SDS011;24074;49.254;6.702;2023-11-21T14:33:12;4.23;;;3.83;;
9950;SDS011;24074;49.254;6.702;2023-11-21T14:35:38;5.83;;;4.03;;
9950;SDS011;24074;49.254;6.702;2023-11-21T14:38:03;4.80;;;3.53;;
9950;SDS011;24074;49.254;6.702;2023-11-21T14:40:33;4.80;;;3.70;;
9950;SDS011;24074;49.254;6.702;2023-11-21T14:43:01;5.57;;;4.03;;
9950;SDS011;24074;49.254;6.702;2023-11-21T14:45:27;5.83;;;4.53;;
9950;SDS011;24074;49.254;6.702;2023-11-21T14:47:54;5.93;;;4.30;;
9950;SDS011;24074;49.254;6.702;2023-11-21T14:50:40;4.67;;;3.80;;
9950;SDS011;24074;49.254;6.702;2023-11-21T14:53:07;4.43;;;3.97;;
9950;SDS011;24074;49.254;6.702;2023-11-21T14:55:37;6.37;;;3.77;;
9950;SDS011;24074;49.254;6.702;2023-11-21T14:58:06;4.97;;;3.80;;
9950;SDS011;24074;49.254;6.702;2023-11-21T15:00:35;3.70;;;3.40;;
9950;SDS011;24074;49.254;6.702;2023-11-21T15:03:01;5.23;;;3.60;;
9950;SDS011;24074;49.254;6.702;2023-11-21T15:05:28;5.40;;;3.27;;
9950;SDS011;24074;49.254;6.702;2023-11-21T15:07:54;4.97;;;3.43;;
9950;SDS011;24074;49.254;6.702;2023-11-21T15:10:36;4.97;;;3.70;;
9950;SDS011;24074;49.254;6.702;2023-11-21T15:13:13;5.50;;;3.60;;
9950;SDS011;24074;49.254;6.702;2023-11-21T15:15:39;3.90;;;3.50;;